Time;durP1;ratioP1;P1;durP2;ratioP2;P2;SDS_P1;SDS_P2;PMS_P1;PMS_P2;Temp;Humidity;BMP_temperature;BMP_pressure;BME280_temperature;BME280_humidity;BME280_pressure;Samples;Min_cycle;Max_cycle;Signal;HPM_P1;HPM_P2
2023/01/19 00:01:48;;;;;;;29.73;5.57;;;;;;;12.12;100.00;98463.31;5069369;28;20665;-55
2023/01/19 00:04:15;;;;;;;17.20;5.37;;;;;;;11.83;100.00;98445.78;5069119;28;20192;-55
2023/01/19 00:06:42;;;;;;;23.73;6.23;;;;;;;12.04;100.00;98486.28;5069245;28;20223;-55
2023/01/19 00:09:08;;;;;;;41.23;6.73;;;;;;;12.08;100.00;98487.78;5069295;28;20196;-56
2023/01/19 00:11:37;;;;;;;21.27;6.17;;;;;;;12.11;100.00;98487.63;5069024;28;20206;-55
2023/01/19 00:14:04;;;;;;;36.93;7.80;;;;;;;12.10;100.00;98492.91;5069541;28;20196;-56
2023/01/19 00:16:31;;;;;;;32.00;6.90;;;;;;;12.12;100.00;98488.47;5071820;28;20202;-56
2023/01/19 00:18:57;;;;;;;32.83;6.87;;;;;;;12.15;100.00;98483.97;5072636;28;20576;-55
2023/01/19 00:21:24;;;;;;;24.47;6.70;;;;;;;12.09;100.00;98505.06;5072628;28;20192;-55
2023/01/19 00:23:51;;;;;;;30.77;7.10;;;;;;;12.19;100.00;98503.69;5072646;28;20199;-55
2023/01/19 00:26:20;;;;;;;34.13;6.73;;;;;;;12.16;100.00;98496.06;5072475;28;20215;-55
2023/01/19 00:28:49;;;;;;;31.17;5.67;;;;;;;12.12;100.00;98484.13;5072923;28;20668;-54
2023/01/19 00:31:19;;;;;;;31.27;6.30;;;;;;;12.01;100.00;98476.03;5072145;28;20200;-56
2023/01/19 00:33:48;;;;;;;28.27;6.13;;;;;;;12.14;100.00;98484.88;5072613;28;20226;-56
2023/01/19 00:36:15;;;;;;;42.97;7.60;;;;;;;12.02;100.00;98493.31;5072579;28;20556;-56
2023/01/19 00:38:42;;;;;;;26.07;6.57;;;;;;;12.14;100.00;98507.44;5072672;28;20196;-56
2023/01/19 00:41:09;;;;;;;26.03;6.13;;;;;;;12.43;100.00;98516.34;5072566;28;20219;-56
2023/01/19 00:43:36;;;;;;;31.40;6.80;;;;;;;12.46;100.00;98534.41;5072320;28;20227;-58
2023/01/19 00:46:04;;;;;;;27.40;5.83;;;;;;;12.29;100.00;98510.13;5072247;28;20223;-58
2023/01/19 00:48:31;;;;;;;25.73;6.43;;;;;;;12.30;100.00;98522.19;5072506;28;20200;-59
2023/01/19 00:50:58;;;;;;;28.40;6.90;;;;;;;12.34;100.00;98510.69;5072261;28;20199;-59
2023/01/19 00:53:27;;;;;;;44.17;6.40;;;;;;;12.33;100.00;98518.59;5072218;28;20316;-58
2023/01/19 00:55:53;;;;;;;32.17;6.63;;;;;;;12.38;100.00;98514.00;5072155;28;20200;-58
2023/01/19 00:58:21;;;;;;;41.70;7.43;;;;;;;12.46;100.00;98518.78;5071825;28;20677;-60
2023/01/19 01:00:48;;;;;;;33.50;5.10;;;;;;;12.54;100.00;98525.25;5072117;28;20290;-59
2023/01/19 01:03:16;;;;;;;40.27;6.40;;;;;;;12.68;100.00;98519.34;5072145;28;20195;-58
2023/01/19 01:05:43;;;;;;;37.67;6.17;;;;;;;12.68;100.00;98512.38;5071632;28;20259;-59
2023/01/19 01:08:10;;;;;;;27.27;5.53;;;;;;;12.70;100.00;98507.09;5071993;28;20232;-58
2023/01/19 01:10:37;;;;;;;29.33;6.70;;;;;;;12.86;100.00;98512.31;5072125;28;20226;-56
2023/01/19 01:13:04;;;;;;;38.50;6.70;;;;;;;12.94;100.00;98510.97;5071760;28;20312;-56
2023/01/19 01:15:31;;;;;;;30.83;7.07;;;;;;;13.02;100.00;98507.94;5071951;28;20414;-55
2023/01/19 01:17:58;;;;;;;40.77;7.30;;;;;;;12.97;100.00;98515.19;5071839;28;20239;-55
2023/01/19 01:20:29;;;;;;;38.17;7.83;;;;;;;12.90;100.00;98508.63;5071756;28;20552;-54
2023/01/19 01:22:57;;;;;;;33.80;7.13;;;;;;;12.57;100.00;98506.06;5071666;28;20664;-56
2023/01/19 01:25:26;;;;;;;43.53;7.27;;;;;;;12.42;100.00;98509.44;5071251;28;20737;-56
2023/01/19 01:27:54;;;;;;;40.27;7.47;;;;;;;12.35;100.00;98514.16;5070868;28;20204;-55
2023/01/19 01:30:21;;;;;;;35.20;7.47;;;;;;;12.31;100.00;98513.44;5071329;28;20206;-55
2023/01/19 01:32:49;;;;;;;32.60;6.73;;;;;;;12.22;100.00;98515.69;5071499;28;20214;-59
2023/01/19 01:35:16;;;;;;;33.83;7.23;;;;;;;12.26;100.00;98509.41;5071442;28;20238;-58
2023/01/19 01:37:45;;;;;;;31.43;6.37;;;;;;;12.30;100.00;98516.97;5071317;28;20680;-58
2023/01/19 01:40:14;;;;;;;30.27;6.67;;;;;;;12.31;100.00;98518.66;5071166;28;20196;-55
2023/01/19 01:42:41;;;;;;;34.20;6.73;;;;;;;12.15;100.00;98509.97;5071161;28;20212;-55
2023/01/19 01:45:29;;;;;;;28.07;6.10;;;;;;;12.14;100.00;98516.09;5071634;28;20196;-55
2023/01/19 01:48:00;;;;;;;35.07;7.10;;;;;;;12.10;100.00;98522.34;5071204;28;20200;-55
2023/01/19 01:50:30;;;;;;;38.10;7.40;;;;;;;12.11;100.00;98538.81;5070919;28;20625;-58
2023/01/19 01:53:02;;;;;;;34.23;6.73;;;;;;;12.05;100.00;98536.53;5071211;28;20204;-58
2023/01/19 01:55:31;;;;;;;36.33;7.23;;;;;;;11.96;100.00;98535.25;5071012;28;20214;-55
2023/01/19 01:58:01;;;;;;;27.10;6.47;;;;;;;11.96;100.00;98545.63;5071076;28;20577;-55
2023/01/19 02:02:49;;;;;;;29.07;7.03;;;;;;;11.78;100.00;98541.34;5070899;28;20198;-54
2023/01/19 02:03:15;;;;;;;32.80;6.80;;;;;;;11.73;100.00;98538.09;5070645;28;20250;-55
2023/01/19 02:05:43;;;;;;;28.10;6.80;;;;;;;11.67;100.00;98534.03;5071061;28;20220;-56
2023/01/19 02:13:46;;;;;;;26.73;6.13;;;;;;;11.70;100.00;98527.84;5070780;28;20686;-55
2023/01/19 02:16:14;;;;;;;35.00;6.43;;;;;;;11.69;100.00;98531.34;5070856;28;20707;-58
2023/01/19 02:18:42;;;;;;;36.83;7.73;;;;;;;11.65;100.00;98536.69;5070533;28;20192;-59
2023/01/19 02:21:12;;;;;;;34.43;6.33;;;;;;;11.66;100.00;98532.34;5070470;28;20200;-56
2023/01/19 02:23:43;;;;;;;43.27;7.83;;;;;;;11.62;100.00;98526.44;5070269;28;20195;-56
2023/01/19 02:26:14;;;;;;;31.87;7.60;;;;;;;11.63;100.00;98522.94;5070601;28;20781;-56
2023/01/19 02:28:45;;;;;;;25.93;6.60;;;;;;;11.68;100.00;98529.66;5070668;28;20587;-55
2023/01/19 02:31:13;;;;;;;28.07;6.20;;;;;;;11.63;100.00;98528.13;5070505;28;20198;-56
2023/01/19 02:33:41;;;;;;;25.17;6.43;;;;;;;11.68;100.00;98537.47;5070366;28;20287;-56
2023/01/19 02:36:10;;;;;;;35.13;6.87;;;;;;;11.65;100.00;98525.47;5070320;28;20285;-55
2023/01/19 02:38:40;;;;;;;37.87;6.70;;;;;;;11.65;100.00;98522.84;5069050;28;20202;-55
2023/01/19 02:41:12;;;;;;;36.70;7.33;;;;;;;11.70;100.00;98548.63;5069591;28;20192;-59
2023/01/19 02:43:40;;;;;;;34.97;7.43;;;;;;;11.42;100.00;98507.53;5069532;28;20232;-59
2023/01/19 02:46:07;;;;;;;38.73;7.00;;;;;;;11.45;100.00;98512.59;5070004;28;20242;-56
2023/01/19 02:48:34;;;;;;;27.17;7.00;;;;;;;11.44;100.00;98516.09;5069920;28;20243;-56
2023/01/19 02:51:04;;;;;;;38.77;7.23;;;;;;;11.44;100.00;98519.56;5069943;28;20219;-55
2023/01/19 02:54:11;;;;;;;31.37;6.37;;;;;;;11.47;100.00;98534.16;5069848;28;20290;-56
2023/01/19 02:57:04;;;;;;;34.63;6.87;;;;;;;11.53;100.00;98536.44;4988399;28;20285;-55
2023/01/19 02:59:45;;;;;;;33.47;6.73;;;;;;;11.51;100.00;98523.53;5037106;28;20657;-59
2023/01/19 03:02:24;;;;;;;33.20;6.20;;;;;;;11.54;100.00;98533.78;5070352;28;20668;-59
2023/01/19 03:05:00;;;;;;;28.00;7.30;;;;;;;11.51;100.00;98549.50;5069709;28;20206;-58
2023/01/19 03:07:37;;;;;;;33.43;7.87;;;;;;;11.46;100.00;98548.91;5069667;28;20216;-58
2023/01/19 03:10:08;;;;;;;28.07;7.63;;;;;;;11.43;100.00;98556.00;5069884;28;20562;-58
2023/01/19 03:12:44;;;;;;;34.33;8.23;;;;;;;11.32;100.00;98555.66;5069779;28;20196;-59
2023/01/19 03:15:18;;;;;;;26.20;6.90;;;;;;;11.31;100.00;98551.38;5069854;28;20796;-59
2023/01/19 03:17:48;;;;;;;31.57;7.33;;;;;;;11.27;100.00;98545.50;5069903;28;20187;-59
2023/01/19 03:20:21;;;;;;;32.57;8.13;;;;;;;11.31;100.00;98534.03;5069670;28;20203;-58
2023/01/19 03:22:53;;;;;;;32.87;7.67;;;;;;;11.25;100.00;98542.13;5067525;28;20218;-59
2023/01/19 03:25:22;;;;;;;29.57;7.53;;;;;;;11.32;100.00;98556.50;5053191;28;20188;-59
2023/01/19 03:27:53;;;;;;;20.93;5.90;;;;;;;11.34;100.00;98543.44;5069522;28;20717;-58
2023/01/19 03:30:25;;;;;;;26.93;6.60;;;;;;;11.37;100.00;98554.53;5064837;28;20191;-55
2023/01/19 03:32:55;;;;;;;26.80;6.50;;;;;;;11.26;100.00;98539.47;5068691;28;20196;-55
2023/01/19 03:35:26;;;;;;;35.10;7.33;;;;;;;11.35;100.00;98561.56;5068921;28;20231;-55
2023/01/19 03:37:57;;;;;;;38.13;7.93;;;;;;;11.28;100.00;98539.41;5066762;28;20187;-56
2023/01/19 03:40:26;;;;;;;25.30;7.47;;;;;;;11.37;100.00;98545.91;5064639;28;20691;-56
2023/01/19 03:42:56;;;;;;;32.03;7.63;;;;;;;11.24;100.00;98562.06;5063652;28;20248;-56
2023/01/19 03:45:23;;;;;;;30.00;7.47;;;;;;;11.40;100.00;98550.97;5066293;28;20196;-56
2023/01/19 03:47:50;;;;;;;37.70;7.37;;;;;;;11.30;100.00;98545.34;5068356;28;20216;-55
2023/01/19 03:50:25;;;;;;;31.97;7.30;;;;;;;11.26;100.00;98551.59;5070119;28;20204;-59
2023/01/19 03:53:06;;;;;;;25.77;6.70;;;;;;;11.21;100.00;98541.41;5070825;28;20202;-58
2023/01/19 03:55:33;;;;;;;29.73;7.00;;;;;;;11.12;100.00;98528.03;5070456;28;20202;-58
2023/01/19 03:58:01;;;;;;;30.90;7.80;;;;;;;11.08;100.00;98555.03;5073186;28;20204;-58
2023/01/19 04:00:28;;;;;;;35.40;7.83;;;;;;;11.03;100.00;98557.03;5073320;28;20586;-59
2023/01/19 04:02:56;;;;;;;23.43;5.93;;;;;;;11.04;100.00;98550.91;5073458;28;20249;-59
2023/01/19 04:05:23;;;;;;;38.00;10.83;;;;;;;11.21;100.00;98572.59;5073066;28;20283;-59
2023/01/19 04:07:50;;;;;;;39.07;10.93;;;;;;;11.13;100.00;98569.50;5073068;28;20219;-59
2023/01/19 04:10:17;;;;;;;43.47;10.60;;;;;;;11.13;100.00;98569.50;5072910;28;20579;-59
2023/01/19 04:12:44;;;;;;;29.53;10.57;;;;;;;10.93;100.00;98558.34;5072990;28;20199;-58
2023/01/19 04:15:13;;;;;;;35.03;8.03;;;;;;;11.14;100.00;98580.75;5072977;28;20192;-59
2023/01/19 04:17:40;;;;;;;35.37;8.27;;;;;;;11.04;100.00;98569.94;5073172;28;20644;-59
2023/01/19 04:20:09;;;;;;;29.27;8.53;;;;;;;11.00;100.00;98570.97;5072612;28;20574;-58
2023/01/19 04:22:37;;;;;;;36.47;8.93;;;;;;;11.04;100.00;98575.13;5072111;28;20200;-57
2023/01/19 04:25:05;;;;;;;36.90;9.23;;;;;;;10.90;100.00;98562.78;5071837;28;20208;-59
2023/01/19 04:27:32;;;;;;;23.27;7.83;;;;;;;10.85;100.00;98564.72;5071275;28;20311;-59
2023/01/19 04:29:59;;;;;;;22.13;6.73;;;;;;;10.84;100.00;98557.84;5071897;28;20200;-58
2023/01/19 04:32:27;;;;;;;31.17;8.37;;;;;;;10.80;100.00;98564.09;5071962;28;20196;-58
2023/01/19 04:34:54;;;;;;;25.27;7.50;;;;;;;10.79;100.00;98584.94;5071960;28;20196;-58
2023/01/19 04:37:21;;;;;;;30.83;6.90;;;;;;;10.77;100.00;98581.56;5071839;28;20192;-56
2023/01/19 04:39:48;;;;;;;34.73;9.40;;;;;;;10.74;100.00;98584.28;5073062;28;20202;-55
2023/01/19 04:42:15;;;;;;;26.97;9.00;;;;;;;10.73;100.00;98577.41;5072611;28;20196;-55
2023/01/19 04:44:42;;;;;;;38.03;8.07;;;;;;;10.70;100.00;98574.97;5071981;28;20314;-55
2023/01/19 04:47:10;;;;;;;28.47;7.73;;;;;;;10.74;100.00;98564.34;5072352;28;20645;-55
2023/01/19 04:49:38;;;;;;;27.97;7.20;;;;;;;10.74;100.00;98560.91;5072155;28;20679;-56
2023/01/19 04:52:06;;;;;;;34.70;7.33;;;;;;;10.67;100.00;98565.56;5072051;28;20206;-56
2023/01/19 04:54:33;;;;;;;42.57;8.03;;;;;;;10.74;100.00;98571.28;5072320;28;20200;-58
2023/01/19 04:57:00;;;;;;;35.60;8.90;;;;;;;10.99;100.00;98566.69;5072280;28;20188;-58
2023/01/19 04:59:27;;;;;;;32.40;8.00;;;;;;;11.01;100.00;98585.66;5071914;28;20210;-59
2023/01/19 05:01:54;;;;;;;31.70;9.07;;;;;;;10.90;100.00;98567.13;5071262;28;20560;-59
2023/01/19 05:04:21;;;;;;;34.50;9.03;;;;;;;10.83;100.00;98560.53;5071977;28;20265;-59
2023/01/19 05:06:50;;;;;;;35.87;7.97;;;;;;;10.88;100.00;98569.78;5071836;28;20219;-58
2023/01/19 05:09:17;;;;;;;33.53;8.53;;;;;;;10.91;100.00;98569.66;5071884;28;20292;-58
2023/01/19 05:11:44;;;;;;;33.10;10.97;;;;;;;10.89;100.00;98579.25;5071694;28;20195;-60
2023/01/19 05:14:11;;;;;;;34.73;11.50;;;;;;;10.82;100.00;98566.63;5072244;28;20250;-59
2023/01/19 05:16:38;;;;;;;40.60;10.53;;;;;;;10.86;100.00;98568.16;5071645;28;20202;-60
2023/01/19 05:19:04;;;;;;;43.40;9.53;;;;;;;10.86;100.00;98550.84;5071787;28;20229;-59
2023/01/19 05:21:31;;;;;;;23.33;8.00;;;;;;;10.85;100.00;98580.28;5071706;28;20203;-59
2023/01/19 05:24:00;;;;;;;39.87;9.90;;;;;;;10.88;100.00;98590.53;5071508;28;20653;-58
2023/01/19 05:26:27;;;;;;;30.47;8.60;;;;;;;10.81;100.00;98586.56;5071358;28;20298;-59
2023/01/19 05:28:53;;;;;;;32.97;9.43;;;;;;;10.80;100.00;98584.88;5071678;28;20206;-58
2023/01/19 05:31:20;;;;;;;42.50;9.97;;;;;;;10.75;100.00;98585.97;5071612;28;20302;-59
2023/01/19 05:33:48;;;;;;;37.63;11.10;;;;;;;10.75;100.00;98585.97;5071310;28;20287;-59
2023/01/19 05:36:15;;;;;;;44.70;10.90;;;;;;;10.86;100.00;98594.97;5071546;28;20200;-59
2023/01/19 05:38:42;;;;;;;34.40;9.20;;;;;;;10.81;100.00;98599.53;5071180;28;20192;-58
2023/01/19 05:41:10;;;;;;;40.87;9.60;;;;;;;10.72;100.00;98602.50;5071642;28;20196;-58
2023/01/19 05:43:37;;;;;;;34.50;10.30;;;;;;;10.82;100.00;98608.16;5070817;28;20231;-59
2023/01/19 05:46:04;;;;;;;34.30;10.50;;;;;;;10.75;100.00;98576.44;5071209;28;20747;-58
2023/01/19 05:48:31;;;;;;;38.33;9.80;;;;;;;10.80;100.00;98603.03;5069806;28;20215;-58
2023/01/19 05:50:58;;;;;;;32.47;10.40;;;;;;;10.91;100.00;98613.78;5071227;28;20204;-58
2023/01/19 05:53:26;;;;;;;27.33;9.73;;;;;;;10.93;100.00;98618.91;5070993;28;20206;-58
2023/01/19 05:55:53;;;;;;;37.40;8.63;;;;;;;10.92;100.00;98622.41;5070893;28;20196;-59
2023/01/19 05:58:21;;;;;;;44.63;9.80;;;;;;;10.88;100.00;98621.69;5070820;28;20196;-59
2023/01/19 06:00:48;;;;;;;40.27;9.57;;;;;;;11.04;100.00;98613.25;5070877;28;20206;-59
2023/01/19 06:03:15;;;;;;;55.80;11.10;;;;;;;11.12;100.00;98626.72;5070926;28;20192;-59
2023/01/19 06:05:42;;;;;;;45.93;11.67;;;;;;;11.05;100.00;98631.34;5070718;28;20202;-60
2023/01/19 06:08:09;;;;;;;33.67;11.43;;;;;;;11.03;100.00;98650.50;5070844;28;20730;-59
2023/01/19 06:10:35;;;;;;;55.33;12.97;;;;;;;11.09;100.00;98645.03;5070624;28;20724;-59
2023/01/19 06:13:02;;;;;;;45.30;13.47;;;;;;;11.21;100.00;98627.13;5070426;28;20584;-58
2023/01/19 06:15:31;;;;;;;45.83;13.60;;;;;;;11.27;100.00;98633.81;5063980;28;20230;-59
2023/01/19 06:17:57;;;;;;;53.30;13.33;;;;;;;11.42;100.00;98632.25;5049956;28;20299;-57
2023/01/19 06:20:24;;;;;;;52.47;12.37;;;;;;;11.48;100.00;98638.03;5049908;28;20221;-57
2023/01/19 06:22:51;;;;;;;43.00;12.90;;;;;;;11.53;100.00;98632.59;5049671;28;20232;-58
2023/01/19 06:25:18;;;;;;;43.70;12.17;;;;;;;11.61;100.00;98636.53;5049423;28;20324;-60
2023/01/19 06:27:45;;;;;;;47.67;12.73;;;;;;;11.70;100.00;98631.81;5049180;28;20273;-58
2023/01/19 06:30:13;;;;;;;53.27;12.97;;;;;;;11.78;100.00;98637.53;5049860;28;20270;-58
2023/01/19 06:32:41;;;;;;;44.07;11.10;;;;;;;11.81;100.00;98642.59;5049796;28;20278;-57
2023/01/19 06:35:09;;;;;;;39.13;11.07;;;;;;;11.95;100.00;98640.16;5057294;28;20630;-60
2023/01/19 06:37:37;;;;;;;47.87;10.53;;;;;;;11.93;100.00;98645.44;5066112;28;20703;-58
2023/01/19 06:40:04;;;;;;;40.70;9.97;;;;;;;11.95;100.00;98642.78;5067345;28;20226;-58
2023/01/19 06:42:31;;;;;;;43.23;10.67;;;;;;;11.95;100.00;98651.41;5068117;28;20235;-57
2023/01/19 06:44:58;;;;;;;41.43;10.13;;;;;;;11.92;100.00;98655.91;5068583;28;20215;-58
2023/01/19 06:47:25;;;;;;;41.73;10.47;;;;;;;12.03;100.00;98645.00;5062911;28;20611;-58
2023/01/19 06:49:53;;;;;;;38.80;10.00;;;;;;;12.07;100.00;98641.34;5067475;28;20207;-59
2023/01/19 06:52:20;;;;;;;51.53;9.70;;;;;;;12.20;100.00;98658.84;5068283;28;20192;-59
2023/01/19 06:54:47;;;;;;;47.97;10.70;;;;;;;12.16;100.00;98654.72;5069070;28;20206;-59
2023/01/19 06:57:14;;;;;;;37.40;10.00;;;;;;;12.20;100.00;98648.44;5069302;28;20192;-56
2023/01/19 06:59:41;;;;;;;47.23;10.23;;;;;;;12.27;100.00;98655.03;5069200;28;20196;-56
2023/01/19 07:02:10;;;;;;;36.50;8.77;;;;;;;12.46;100.00;98660.16;5069013;28;20215;-55
2023/01/19 07:04:37;;;;;;;40.17;9.27;;;;;;;12.58;100.00;98658.72;5069685;28;20199;-55
2023/01/19 07:07:05;;;;;;;38.67;9.93;;;;;;;12.66;100.00;98656.56;5069681;28;20228;-55
2023/01/19 07:09:32;;;;;;;39.67;9.03;;;;;;;12.65;100.00;98650.50;5069584;28;20587;-56
2023/01/19 07:11:59;;;;;;;37.73;8.53;;;;;;;12.80;100.00;98661.06;5070198;28;20198;-55
2023/01/19 07:14:29;;;;;;;44.60;8.57;;;;;;;12.77;100.00;98654.25;5069669;28;20192;-60
2023/01/19 07:16:56;;;;;;;38.47;8.80;;;;;;;12.84;100.00;98680.81;5069765;28;20782;-59
2023/01/19 07:19:23;;;;;;;45.13;8.53;;;;;;;12.90;100.00;98691.75;5069246;28;20195;-59
2023/01/19 07:21:50;;;;;;;33.20;8.47;;;;;;;12.97;100.00;98677.53;5068543;28;20570;-59
2023/01/19 07:24:18;;;;;;;36.70;7.80;;;;;;;12.97;100.00;98669.72;5068587;28;20605;-59
2023/01/19 07:26:45;;;;;;;50.63;8.60;;;;;;;13.04;100.00;98673.66;5072822;28;20602;-59
2023/01/19 07:29:12;;;;;;;43.93;9.37;;;;;;;13.21;100.00;98669.34;5073528;28;20242;-55
2023/01/19 07:31:39;;;;;;;35.90;7.10;;;;;;;13.32;100.00;98662.63;5073694;28;20202;-59
2023/01/19 07:34:06;;;;;;;41.27;7.90;;;;;;;13.47;100.00;98665.34;5073867;28;20198;-56
2023/01/19 07:36:33;;;;;;;36.63;7.23;;;;;;;13.58;100.00;98669.06;5072597;28;20192;-60
2023/01/19 07:38:59;;;;;;;44.63;8.33;;;;;;;13.70;100.00;98667.56;5072408;28;20283;-59
2023/01/19 07:41:28;;;;;;;39.73;9.33;;;;;;;13.82;100.00;98666.88;5072111;28;20206;-59
2023/01/19 07:43:54;;;;;;;46.07;9.10;;;;;;;13.83;100.00;98663.34;5072409;28;20711;-59
2023/01/19 07:46:21;;;;;;;37.37;7.67;;;;;;;13.95;100.00;98673.09;5072355;28;20206;-59
2023/01/19 07:48:49;;;;;;;42.33;8.17;;;;;;;13.99;100.00;98666.81;5072057;28;20221;-60
2023/01/19 07:51:17;;;;;;;47.03;8.10;;;;;;;14.07;100.00;98667.19;5072005;28;20203;-55
2023/01/19 07:53:44;;;;;;;29.50;7.27;;;;;;;14.21;100.00;98670.81;5064803;28;20204;-57
2023/01/19 07:56:12;;;;;;;50.17;8.37;;;;;;;14.33;100.00;98673.56;5052330;28;20299;-55
2023/01/19 07:58:40;;;;;;;44.23;9.20;;;;;;;14.46;100.00;98656.25;5052521;28;20536;-56
2023/01/19 08:01:09;;;;;;;35.40;8.03;;;;;;;14.55;100.00;98652.28;5052362;28;20211;-56
2023/01/19 08:03:36;;;;;;;32.90;8.10;;;;;;;14.56;100.00;98663.59;5053848;28;20284;-56
2023/01/19 08:06:04;;;;;;;34.77;7.80;;;;;;;14.66;100.00;98660.34;5072011;28;20196;-58
2023/01/19 08:08:32;;;;;;;39.63;8.07;;;;;;;14.73;100.00;98645.97;5071699;28;20277;-58
2023/01/19 08:10:59;;;;;;;43.37;8.10;;;;;;;14.75;100.00;98648.50;5071612;28;20568;-57
2023/01/19 08:13:28;;;;;;;46.77;9.20;;;;;;;14.81;100.00;98656.78;5071878;28;20295;-58
2023/01/19 08:15:56;;;;;;;40.33;10.37;;;;;;;14.86;100.00;98664.38;5072354;28;20202;-58
2023/01/19 08:18:23;;;;;;;38.67;8.00;;;;;;;14.99;100.00;98665.31;5072662;28;20195;-57
2023/01/19 08:20:50;;;;;;;41.87;9.43;;;;;;;15.06;100.00;98658.78;5071858;28;20672;-57
2023/01/19 08:23:18;;;;;;;45.90;9.63;;;;;;;15.20;100.00;98681.47;5071326;28;20231;-57
2023/01/19 08:25:45;;;;;;;35.50;7.77;;;;;;;15.36;99.26;98682.19;5068944;28;20188;-57
2023/01/19 08:28:14;;;;;;;42.60;8.93;;;;;;;15.31;99.89;98665.13;5071201;28;20222;-57
2023/01/19 08:30:43;;;;;;;40.70;8.33;;;;;;;15.33;100.00;98660.66;5071003;28;20374;-58
2023/01/19 08:33:12;;;;;;;41.27;7.33;;;;;;;15.34;100.00;98667.56;5071400;28;20200;-58
2023/01/19 08:35:42;;;;;;;45.87;8.40;;;;;;;15.36;99.29;98665.66;5071760;28;20619;-59
2023/01/19 08:38:10;;;;;;;40.97;8.60;;;;;;;15.27;99.51;98665.31;5072122;28;20227;-59
2023/01/19 08:40:39;;;;;;;40.93;7.97;;;;;;;15.43;99.19;98673.06;5071940;28;20223;-58
2023/01/19 08:43:08;;;;;;;44.40;8.17;;;;;;;15.50;98.67;98663.91;5071589;28;20234;-58
2023/01/19 08:45:36;;;;;;;59.47;9.10;;;;;;;15.63;98.50;98663.16;5071945;28;20202;-58
2023/01/19 08:48:05;;;;;;;43.33;8.07;;;;;;;15.66;97.41;98649.91;5072208;28;20226;-58
2023/01/19 08:50:34;;;;;;;40.67;7.63;;;;;;;15.83;96.88;98658.34;5072616;28;20192;-57
2023/01/19 08:53:05;;;;;;;43.17;7.60;;;;;;;15.91;95.33;98632.50;5072465;28;20231;-57
2023/01/19 08:55:34;;;;;;;40.63;8.60;;;;;;;15.93;95.00;98629.81;5072201;28;20209;-57
2023/01/19 08:58:02;;;;;;;48.63;8.07;;;;;;;15.95;95.42;98647.09;5071802;28;20195;-60
2023/01/19 09:00:32;;;;;;;42.13;7.87;;;;;;;16.06;94.50;98648.16;5071383;28;20598;-58
2023/01/19 09:03:00;;;;;;;37.00;7.90;;;;;;;16.12;96.02;98645.16;5072022;28;20287;-60
2023/01/19 09:05:27;;;;;;;49.07;9.90;;;;;;;16.17;95.20;98627.38;5071240;28;20302;-61
2023/01/19 09:07:55;;;;;;;53.57;11.53;;;;;;;16.25;93.60;98632.97;5071201;28;20230;-60
2023/01/19 09:10:25;;;;;;;49.83;9.20;;;;;;;16.32;93.52;98636.84;5071412;28;20854;-55
2023/01/19 09:12:54;;;;;;;48.47;8.27;;;;;;;16.43;93.21;98639.59;5072083;28;20200;-57
2023/01/19 09:15:21;;;;;;;49.00;8.93;;;;;;;16.51;92.41;98621.56;5071886;28;20222;-55
2023/01/19 09:17:48;;;;;;;48.37;8.50;;;;;;;16.59;91.95;98624.50;5071550;28;20222;-54
2023/01/19 09:20:15;;;;;;;45.87;9.00;;;;;;;16.64;91.03;98627.69;5071724;28;20196;-55
2023/01/19 09:22:42;;;;;;;49.88;10.88;;;;;;;16.66;91.14;98619.75;5071520;28;20620;-55
2023/01/19 09:25:10;;;;;;;46.63;10.00;;;;;;;16.75;90.84;98626.97;5071684;28;20203;-55
2023/01/19 09:27:37;;;;;;;48.10;8.67;;;;;;;16.75;89.58;98623.50;5071483;28;20195;-55
2023/01/19 09:30:06;;;;;;;52.00;9.25;;;;;;;16.89;90.19;98615.56;5071754;28;20206;-55
2023/01/19 09:32:32;;;;;;;50.72;10.05;;;;;;;17.05;88.71;98610.91;5071255;28;20200;-54
2023/01/19 09:34:59;;;;;;;51.78;9.13;;;;;;;17.06;87.76;98623.06;5071411;28;20222;-55
2023/01/19 09:37:26;;;;;;;52.67;9.23;;;;;;;17.13;87.52;98606.00;5071022;28;20200;-57
2023/01/19 09:39:53;;;;;;;44.08;7.35;;;;;;;17.22;85.51;98617.63;5071339;28;20202;-55
2023/01/19 09:42:27;;;;;;;46.22;7.80;;;;;;;17.26;84.92;98616.47;5071593;28;20702;-55
2023/01/19 09:44:54;;;;;;;52.88;8.38;;;;;;;17.33;83.25;98610.66;5071568;28;21350;-55
2023/01/19 09:47:28;;;;;;;56.70;9.63;;;;;;;17.40;82.56;98606.66;5071180;28;20200;-55
2023/01/19 09:50:01;;;;;;;42.92;8.32;;;;;;;17.57;80.36;98607.25;5070574;28;20245;-55
2023/01/19 09:52:32;;;;;;;41.92;7.97;;;;;;;17.68;79.93;98621.31;5071068;28;20199;-60
2023/01/19 09:54:59;;;;;;;56.17;9.00;;;;;;;17.66;80.98;98609.25;5070863;28;20195;-59
2023/01/19 09:57:29;;;;;;;41.60;8.32;;;;;;;17.66;79.47;98588.25;5070497;28;20614;-60
2023/01/19 09:59:58;;;;;;;42.05;7.78;;;;;;;17.83;77.10;98587.03;5070744;28;20200;-59
2023/01/19 10:02:37;;;;;;;51.22;7.65;;;;;;;17.95;76.40;98584.31;5070821;28;20211;-59
2023/01/19 10:05:05;;;;;;;42.97;7.82;;;;;;;18.06;75.20;98587.00;5071149;28;20350;-58
2023/01/19 10:08:02;;;;;;;49.78;7.95;;;;;;;18.16;75.12;98588.97;5070681;28;20202;-59
2023/01/19 10:10:31;;;;;;;36.97;7.35;;;;;;;18.24;72.10;98576.91;5070653;28;20269;-55
2023/01/19 10:13:11;;;;;;;45.47;8.25;;;;;;;18.34;73.39;98582.31;5070620;28;20200;-56
2023/01/19 10:15:46;;;;;;;48.88;8.05;;;;;;;18.46;74.23;98581.41;5070905;28;20202;-55
2023/01/19 10:18:18;;;;;;;69.90;10.00;;;;;;;18.60;75.02;98575.97;5070571;28;20196;-54
2023/01/19 10:20:50;;;;;;;46.85;8.05;;;;;;;18.65;74.38;98568.53;5070384;28;20195;-55
2023/01/19 10:23:35;;;;;;;41.08;8.02;;;;;;;18.75;73.99;98571.28;5070457;28;20199;-55
2023/01/19 10:26:08;;;;;;;50.47;8.50;;;;;;;18.82;75.36;98576.00;5050278;28;20228;-55
2023/01/19 10:28:38;;;;;;;49.22;7.30;;;;;;;18.81;75.25;98570.84;5050417;28;20727;-55
2023/01/19 10:31:08;;;;;;;46.50;7.47;;;;;;;18.85;76.04;98557.31;5049997;28;20204;-53
2023/01/19 10:33:35;;;;;;;48.58;7.40;;;;;;;18.85;75.20;98557.31;5049810;28;20291;-54
2023/01/19 10:36:05;;;;;;;36.22;7.28;;;;;;;18.95;72.92;98548.75;5050038;28;20199;-54
2023/01/19 10:38:34;;;;;;;36.90;7.88;;;;;;;18.92;72.03;98552.44;5050207;28;20188;-53
2023/01/19 10:41:05;;;;;;;35.15;6.72;;;;;;;18.96;70.17;98563.56;5050231;28;20196;-53
2023/01/19 10:43:40;;;;;;;37.20;6.60;;;;;;;19.02;70.22;98547.28;5049944;28;20228;-52
2023/01/19 10:46:16;;;;;;;40.92;8.57;;;;;;;19.08;69.85;98541.53;5050052;28;20203;-53
2023/01/19 10:48:43;;;;;;;43.75;7.35;;;;;;;19.21;68.78;98547.50;5049997;28;20266;-54
2023/01/19 10:51:12;;;;;;;39.60;7.15;;;;;;;19.29;68.04;98546.91;5064197;28;20269;-54
2023/01/19 10:53:39;;;;;;;39.80;6.82;;;;;;;19.23;67.45;98554.31;5069996;28;20583;-54
2023/01/19 10:56:15;;;;;;;36.17;6.93;;;;;;;19.30;66.50;98551.22;5070200;28;20200;-55
2023/01/19 10:58:43;;;;;;;40.55;6.68;;;;;;;19.32;65.71;98544.84;5069887;28;20572;-56
2023/01/19 11:01:16;;;;;;;33.17;6.20;;;;;;;19.40;63.76;98554.78;5069439;28;20663;-55
2023/01/19 11:03:43;;;;;;;24.98;5.43;;;;;;;19.49;61.59;98546.19;5070113;28;20209;-55
2023/01/19 11:06:28;;;;;;;29.85;5.63;;;;;;;19.37;62.09;98524.28;5069938;28;20200;-60
2023/01/19 11:09:11;;;;;;;42.75;7.28;;;;;;;19.57;61.89;98522.69;5069279;28;20227;-60
2023/01/19 11:11:44;;;;;;;37.00;6.93;;;;;;;19.65;61.87;98519.44;5070126;28;20279;-60
2023/01/19 11:14:14;;;;;;;40.47;7.20;;;;;;;19.70;62.09;98523.38;5069112;28;20203;-59
2023/01/19 11:16:46;;;;;;;42.95;6.50;;;;;;;19.75;60.41;98536.16;5070065;28;20287;-59
2023/01/19 11:19:20;;;;;;;26.58;5.50;;;;;;;19.90;58.20;98527.00;5070247;28;20216;-60
2023/01/19 11:21:47;;;;;;;36.50;5.75;;;;;;;20.04;54.39;98525.84;5069616;28;20202;-55
2023/01/19 11:24:15;;;;;;;32.95;5.32;;;;;;;20.02;54.01;98528.63;5069658;28;20698;-55
2023/01/19 11:26:46;;;;;;;32.33;6.10;;;;;;;20.09;53.14;98524.50;5069556;28;20199;-58
2023/01/19 11:29:19;;;;;;;43.58;7.05;;;;;;;20.05;53.64;98525.72;5069252;28;20212;-55
2023/01/19 11:31:47;;;;;;;31.25;6.75;;;;;;;20.15;53.78;98521.38;5068233;28;20579;-60
2023/01/19 11:34:31;;;;;;;24.15;6.45;;;;;;;20.18;54.20;98529.03;5068493;28;20692;-55